Hauptseite
METAR-TAF:

METAR-TAF

Flughäfen :

Flughafen Alderney

Alderney,

Breite: 49-43N, Länge: 002-12W, Höhe: 71 m

Beobachtung

Neuester Wetterbericht von vor 10 Stunden und 27 Minuten, um 18:20 UTC
Wind 15 kt aus Süd
Temperatur 12°C
Luftfeuchtigkeit 94%
Luftdruck 1020 hPa
Sichtweite 10 km oder mehr
Durchbrochene Bewölkung in der Höhe von 800 ft

METAR: EGJA 141820Z 17015KT 9999 BKN008 12/11 Q1020

Zeit: 04:47 (04:47 UTC)

Prognose

Neuester Wetterbericht von vor 14 Stunden und 46 Minuten, um 14:01 UTC
Gültige Prognose vom 14 um 15 UTC bis 14 um 19 UTC
Wind 15 kt aus Süd/Südost
Sichtweite 10 km oder mehr
Leicht bewölkt in der Höhe von 700 ft
Wahrscheinlichkeit 40% :
Zeitweise
vom 14 um 17 UTC bis 14 um 19 UTC
Durchbrochene Bewölkung in der Höhe von 700 ft

TAF: EGJA 141401Z 1415/1419 16015KT 9999 FEW007 PROB40 TEMPO 1417/1419 BKN007

Wetterbeobachtungen und Prognosen von mehr als 4000 Flughäfen (METAR und TAF Bericht).

Die verfügbaren Stationen werden durch gelbe und rote Markierungen auf der Karte dargestellt.

Führen Sie die Maus auf sie, um den Namen der Station zu sehen.

Darauf klicken, um die Beobachtung von Wetterbeobachtungen und Prognosen zu sehen.

Um die Karte zu ändern : klicken Sie auf den grünen Tasten mit einem schwarzen Kreuz Zum Vergrößern, auf den grünen Button mit einem Gedankenstrich zu verkleinern, oder auf die grünen Pfeile für benachbarte Karten.


METAR-TAF: